sensor_id;sensor_type;location;lat;lon;timestamp;temperature;humidity
54788;DHT22;59598;48.112;16.280;2022-09-27T00:01:14;10.50;99.90
54788;DHT22;59598;48.112;16.280;2022-09-27T00:03:51;10.50;99.90
54788;DHT22;59598;48.112;16.280;2022-09-27T00:06:31;10.40;99.90
54788;DHT22;59598;48.112;16.280;2022-09-27T00:09:03;10.40;99.90
54788;DHT22;59598;48.112;16.280;2022-09-27T00:11:39;10.40;99.90
54788;DHT22;59598;48.112;16.280;2022-09-27T00:14:16;10.40;99.90
54788;DHT22;59598;48.112;16.280;2022-09-27T00:16:50;10.50;99.90
54788;DHT22;59598;48.112;16.280;2022-09-27T00:19:21;10.50;99.90
54788;DHT22;59598;48.112;16.280;2022-09-27T00:21:55;10.60;99.90
54788;DHT22;59598;48.112;16.280;2022-09-27T00:24:31;10.60;99.90
54788;DHT22;59598;48.112;16.280;2022-09-27T00:27:05;10.60;99.90
54788;DHT22;59598;48.112;16.280;2022-09-27T00:29:36;10.70;99.90
54788;DHT22;59598;48.112;16.280;2022-09-27T00:32:11;10.70;99.90
54788;DHT22;59598;48.112;16.280;2022-09-27T00:34:42;10.70;99.90
54788;DHT22;59598;48.112;16.280;2022-09-27T00:37:14;10.80;99.90
54788;DHT22;59598;48.112;16.280;2022-09-27T00:39:45;10.80;99.90
54788;DHT22;59598;48.112;16.280;2022-09-27T00:42:17;10.80;99.90
54788;DHT22;59598;48.112;16.280;2022-09-27T00:45:11;10.80;99.90
54788;DHT22;59598;48.112;16.280;2022-09-27T00:47:55;10.80;99.90
54788;DHT22;59598;48.112;16.280;2022-09-27T00:50:35;10.70;99.90
54788;DHT22;59598;48.112;16.280;2022-09-27T00:53:30;10.70;99.90
54788;DHT22;59598;48.112;16.280;2022-09-27T00:56:07;10.60;99.90
54788;DHT22;59598;48.112;16.280;2022-09-27T00:58:45;10.60;99.90
54788;DHT22;59598;48.112;16.280;2022-09-27T01:01:18;10.60;99.90
54788;DHT22;59598;48.112;16.280;2022-09-27T01:04:11;10.60;99.90
54788;DHT22;59598;48.112;16.280;2022-09-27T01:06:46;10.60;99.90
54788;DHT22;59598;48.112;16.280;2022-09-27T01:09:17;10.50;99.90
54788;DHT22;59598;48.112;16.280;2022-09-27T01:12:14;10.50;99.90
54788;DHT22;59598;48.112;16.280;2022-09-27T01:15:12;10.50;99.90
54788;DHT22;59598;48.112;16.280;2022-09-27T01:26:09;10.40;99.90
54788;DHT22;59598;48.112;16.280;2022-09-27T01:34:07;10.30;99.90
54788;DHT22;59598;48.112;16.280;2022-09-27T01:37:06;10.30;99.90
54788;DHT22;59598;48.112;16.280;2022-09-27T01:39:59;10.30;99.90
54788;DHT22;59598;48.112;16.280;2022-09-27T01:45:43;10.20;99.90
54788;DHT22;59598;48.112;16.280;2022-09-27T01:48:22;10.20;99.90
54788;DHT22;59598;48.112;16.280;2022-09-27T01:51:09;10.20;99.90
54788;DHT22;59598;48.112;16.280;2022-09-27T01:53:50;10.20;99.90
54788;DHT22;59598;48.112;16.280;2022-09-27T01:56:34;10.10;99.90
54788;DHT22;59598;48.112;16.280;2022-09-27T02:01:45;10.10;99.90
54788;DHT22;59598;48.112;16.280;2022-09-27T02:04:29;10.10;99.90
54788;DHT22;59598;48.112;16.280;2022-09-27T02:10:16;10.10;99.90
54788;DHT22;59598;48.112;16.280;2022-09-27T02:22:25;10.20;99.90
54788;DHT22;59598;48.112;16.280;2022-09-27T02:25:33;10.10;99.90
54788;DHT22;59598;48.112;16.280;2022-09-27T02:30:55;10.10;99.90
54788;DHT22;59598;48.112;16.280;2022-09-27T02:33:36;10.10;99.90
54788;DHT22;59598;48.112;16.280;2022-09-27T02:36:08;10.00;99.90
54788;DHT22;59598;48.112;16.280;2022-09-27T02:38:44;10.00;99.90
54788;DHT22;59598;48.112;16.280;2022-09-27T02:41:18;10.00;99.90
54788;DHT22;59598;48.112;16.280;2022-09-27T02:44:01;9.90;99.90
54788;DHT22;59598;48.112;16.280;2022-09-27T02:49:34;10.00;99.90
54788;DHT22;59598;48.112;16.280;2022-09-27T02:55:23;10.00;99.90
54788;DHT22;59598;48.112;16.280;2022-09-27T03:00:46;10.00;99.90
54788;DHT22;59598;48.112;16.280;2022-09-27T03:03:30;10.00;99.90
54788;DHT22;59598;48.112;16.280;2022-09-27T03:06:04;10.00;99.90
54788;DHT22;59598;48.112;16.280;2022-09-27T03:08:38;10.00;99.90
54788;DHT22;59598;48.112;16.280;2022-09-27T03:11:12;10.00;99.90
54788;DHT22;59598;48.112;16.280;2022-09-27T03:13:46;10.00;99.90
54788;DHT22;59598;48.112;16.280;2022-09-27T03:16:17;9.90;99.90
54788;DHT22;59598;48.112;16.280;2022-09-27T03:18:52;10.00;99.90
54788;DHT22;59598;48.112;16.280;2022-09-27T03:21:23;10.00;99.90
54788;DHT22;59598;48.112;16.280;2022-09-27T03:23:54;10.00;99.90
54788;DHT22;59598;48.112;16.280;2022-09-27T03:26:27;10.00;99.90
54788;DHT22;59598;48.112;16.280;2022-09-27T03:29:00;10.00;99.90
54788;DHT22;59598;48.112;16.280;2022-09-27T03:31:32;10.10;99.90
54788;DHT22;59598;48.112;16.280;2022-09-27T03:34:06;10.10;99.90
54788;DHT22;59598;48.112;16.280;2022-09-27T03:36:37;10.20;99.90
54788;DHT22;59598;48.112;16.280;2022-09-27T03:39:10;10.30;99.90
54788;DHT22;59598;48.112;16.280;2022-09-27T03:41:41;10.30;99.90
54788;DHT22;59598;48.112;16.280;2022-09-27T03:44:16;10.30;99.90
54788;DHT22;59598;48.112;16.280;2022-09-27T03:46:47;10.30;99.90
54788;DHT22;59598;48.112;16.280;2022-09-27T03:49:18;10.40;99.90
54788;DHT22;59598;48.112;16.280;2022-09-27T03:51:49;10.30;99.90
54788;DHT22;59598;48.112;16.280;2022-09-27T03:54:23;10.40;99.90
54788;DHT22;59598;48.112;16.280;2022-09-27T03:56:55;10.50;99.90
54788;DHT22;59598;48.112;16.280;2022-09-27T03:59:26;10.50;99.90
54788;DHT22;59598;48.112;16.280;2022-09-27T04:01:57;10.60;99.90
54788;DHT22;59598;48.112;16.280;2022-09-27T04:04:31;10.60;99.90
54788;DHT22;59598;48.112;16.280;2022-09-27T04:07:04;10.60;99.90
54788;DHT22;59598;48.112;16.280;2022-09-27T04:09:36;10.70;99.90
54788;DHT22;59598;48.112;16.280;2022-09-27T04:12:07;10.60;99.90
54788;DHT22;59598;48.112;16.280;2022-09-27T04:14:38;10.60;99.90
54788;DHT22;59598;48.112;16.280;2022-09-27T04:17:15;10.60;99.90
54788;DHT22;59598;48.112;16.280;2022-09-27T04:19:46;10.60;99.90
54788;DHT22;59598;48.112;16.280;2022-09-27T04:22:18;10.60;99.90
54788;DHT22;59598;48.112;16.280;2022-09-27T04:24:49;10.60;99.90
54788;DHT22;59598;48.112;16.280;2022-09-27T04:27:20;10.60;99.90
54788;DHT22;59598;48.112;16.280;2022-09-27T04:29:52;10.60;99.90
54788;DHT22;59598;48.112;16.280;2022-09-27T04:32:23;10.60;99.90
54788;DHT22;59598;48.112;16.280;2022-09-27T04:34:59;10.50;99.90
54788;DHT22;59598;48.112;16.280;2022-09-27T04:37:49;10.60;99.90
54788;DHT22;59598;48.112;16.280;2022-09-27T04:40:20;10.60;99.90
54788;DHT22;59598;48.112;16.280;2022-09-27T04:42:52;10.70;99.90
54788;DHT22;59598;48.112;16.280;2022-09-27T04:45:29;10.70;99.90
54788;DHT22;59598;48.112;16.280;2022-09-27T04:48:01;10.70;99.90
54788;DHT22;59598;48.112;16.280;2022-09-27T04:50:32;10.80;99.90
54788;DHT22;59598;48.112;16.280;2022-09-27T04:53:04;10.90;99.90
54788;DHT22;59598;48.112;16.280;2022-09-27T04:55:35;10.90;99.90
54788;DHT22;59598;48.112;16.280;2022-09-27T04:58:08;10.90;99.90
54788;DHT22;59598;48.112;16.280;2022-09-27T05:00:39;11.00;99.90
54788;DHT22;59598;48.112;16.280;2022-09-27T05:03:15;11.00;99.90
54788;DHT22;59598;48.112;16.280;2022-09-27T05:05:46;11.00;99.90
54788;DHT22;59598;48.112;16.280;2022-09-27T05:08:20;11.00;99.90
54788;DHT22;59598;48.112;16.280;2022-09-27T05:10:53;11.00;99.90
54788;DHT22;59598;48.112;16.280;2022-09-27T05:13:24;11.10;99.90
54788;DHT22;59598;48.112;16.280;2022-09-27T05:16:01;11.00;99.90
54788;DHT22;59598;48.112;16.280;2022-09-27T05:18:33;11.10;99.90
54788;DHT22;59598;48.112;16.280;2022-09-27T05:21:05;11.20;99.90
54788;DHT22;59598;48.112;16.280;2022-09-27T05:23:38;11.20;99.90
54788;DHT22;59598;48.112;16.280;2022-09-27T05:26:12;11.20;99.90
54788;DHT22;59598;48.112;16.280;2022-09-27T05:28:46;11.20;99.90
54788;DHT22;59598;48.112;16.280;2022-09-27T05:31:17;11.10;99.90
54788;DHT22;59598;48.112;16.280;2022-09-27T05:33:50;11.10;99.90
54788;DHT22;59598;48.112;16.280;2022-09-27T05:36:21;11.10;99.90
54788;DHT22;59598;48.112;16.280;2022-09-27T05:38:55;11.10;99.90
54788;DHT22;59598;48.112;16.280;2022-09-27T05:41:27;11.20;99.90
54788;DHT22;59598;48.112;16.280;2022-09-27T05:43:58;11.20;99.90
54788;DHT22;59598;48.112;16.280;2022-09-27T05:46:29;11.30;99.90
54788;DHT22;59598;48.112;16.280;2022-09-27T05:49:04;11.30;99.90
54788;DHT22;59598;48.112;16.280;2022-09-27T05:51:38;11.40;99.90
54788;DHT22;59598;48.112;16.280;2022-09-27T05:54:10;11.40;99.90
54788;DHT22;59598;48.112;16.280;2022-09-27T05:56:44;11.40;99.90
54788;DHT22;59598;48.112;16.280;2022-09-27T05:59:16;11.40;99.90
54788;DHT22;59598;48.112;16.280;2022-09-27T06:01:49;11.50;99.90
54788;DHT22;59598;48.112;16.280;2022-09-27T06:04:23;11.50;99.90
54788;DHT22;59598;48.112;16.280;2022-09-27T06:06:54;11.50;99.90
54788;DHT22;59598;48.112;16.280;2022-09-27T06:09:28;11.50;99.90
54788;DHT22;59598;48.112;16.280;2022-09-27T06:12:02;11.60;99.90
54788;DHT22;59598;48.112;16.280;2022-09-27T06:14:33;11.50;99.90
54788;DHT22;59598;48.112;16.280;2022-09-27T06:17:05;11.50;99.90
54788;DHT22;59598;48.112;16.280;2022-09-27T06:19:36;11.70;99.90
54788;DHT22;59598;48.112;16.280;2022-09-27T06:22:07;11.60;99.90
54788;DHT22;59598;48.112;16.280;2022-09-27T06:24:38;11.70;99.90
54788;DHT22;59598;48.112;16.280;2022-09-27T06:27:10;11.70;99.90
54788;DHT22;59598;48.112;16.280;2022-09-27T06:29:44;11.80;99.90
54788;DHT22;59598;48.112;16.280;2022-09-27T06:32:17;11.90;99.90
54788;DHT22;59598;48.112;16.280;2022-09-27T06:34:48;12.00;99.90
54788;DHT22;59598;48.112;16.280;2022-09-27T06:37:25;12.20;99.90
54788;DHT22;59598;48.112;16.280;2022-09-27T06:39:57;12.30;99.90
54788;DHT22;59598;48.112;16.280;2022-09-27T06:42:28;12.60;99.90
54788;DHT22;59598;48.112;16.280;2022-09-27T06:45:03;12.70;99.90
54788;DHT22;59598;48.112;16.280;2022-09-27T06:47:35;12.80;99.90
54788;DHT22;59598;48.112;16.280;2022-09-27T06:50:07;12.90;99.90
54788;DHT22;59598;48.112;16.280;2022-09-27T06:52:49;13.10;99.90
54788;DHT22;59598;48.112;16.280;2022-09-27T06:55:23;13.20;99.90
54788;DHT22;59598;48.112;16.280;2022-09-27T06:57:58;13.30;99.90
54788;DHT22;59598;48.112;16.280;2022-09-27T07:00:51;13.20;99.90
54788;DHT22;59598;48.112;16.280;2022-09-27T07:03:23;13.40;99.90
54788;DHT22;59598;48.112;16.280;2022-09-27T07:06:02;13.10;99.90
54788;DHT22;59598;48.112;16.280;2022-09-27T07:08:37;13.20;99.90
54788;DHT22;59598;48.112;16.280;2022-09-27T07:11:08;13.20;99.90
54788;DHT22;59598;48.112;16.280;2022-09-27T07:13:39;13.30;99.90
54788;DHT22;59598;48.112;16.280;2022-09-27T07:16:15;13.30;99.90
54788;DHT22;59598;48.112;16.280;2022-09-27T07:18:49;13.20;99.90
54788;DHT22;59598;48.112;16.280;2022-09-27T07:21:25;13.10;99.90
54788;DHT22;59598;48.112;16.280;2022-09-27T07:23:57;13.20;99.90
54788;DHT22;59598;48.112;16.280;2022-09-27T07:26:28;13.30;99.90
54788;DHT22;59598;48.112;16.280;2022-09-27T07:28:59;13.30;99.90
54788;DHT22;59598;48.112;16.280;2022-09-27T07:31:33;13.00;99.90
54788;DHT22;59598;48.112;16.280;2022-09-27T07:34:05;12.90;99.90
54788;DHT22;59598;48.112;16.280;2022-09-27T07:36:36;12.80;99.90
54788;DHT22;59598;48.112;16.280;2022-09-27T07:39:11;12.70;99.90
54788;DHT22;59598;48.112;16.280;2022-09-27T07:41:42;12.70;99.90
54788;DHT22;59598;48.112;16.280;2022-09-27T07:44:13;12.70;99.90
54788;DHT22;59598;48.112;16.280;2022-09-27T07:46:46;12.70;99.90
54788;DHT22;59598;48.112;16.280;2022-09-27T07:49:22;12.60;99.90
54788;DHT22;59598;48.112;16.280;2022-09-27T07:51:56;12.60;99.90
54788;DHT22;59598;48.112;16.280;2022-09-27T07:54:27;12.60;99.90
54788;DHT22;59598;48.112;16.280;2022-09-27T07:57:01;12.50;99.90
54788;DHT22;59598;48.112;16.280;2022-09-27T07:59:33;12.50;99.90
54788;DHT22;59598;48.112;16.280;2022-09-27T08:02:04;12.60;99.90
54788;DHT22;59598;48.112;16.280;2022-09-27T08:04:35;12.70;99.90
54788;DHT22;59598;48.112;16.280;2022-09-27T08:07:12;12.60;99.90
54788;DHT22;59598;48.112;16.280;2022-09-27T08:09:44;12.60;99.90
54788;DHT22;59598;48.112;16.280;2022-09-27T08:12:19;12.50;99.90
54788;DHT22;59598;48.112;16.280;2022-09-27T08:14:51;12.40;99.90
54788;DHT22;59598;48.112;16.280;2022-09-27T08:17:22;12.30;99.90
54788;DHT22;59598;48.112;16.280;2022-09-27T08:19:54;12.20;99.90
54788;DHT22;59598;48.112;16.280;2022-09-27T08:22:28;12.20;99.90
54788;DHT22;59598;48.112;16.280;2022-09-27T08:24:59;11.90;99.90
54788;DHT22;59598;48.112;16.280;2022-09-27T08:27:30;11.80;99.90
54788;DHT22;59598;48.112;16.280;2022-09-27T08:30:02;11.70;99.90
54788;DHT22;59598;48.112;16.280;2022-09-27T08:32:36;11.60;99.90
54788;DHT22;59598;48.112;16.280;2022-09-27T08:35:10;11.50;99.90
54788;DHT22;59598;48.112;16.280;2022-09-27T08:37:51;11.50;99.90
54788;DHT22;59598;48.112;16.280;2022-09-27T08:48:51;11.40;99.90
54788;DHT22;59598;48.112;16.280;2022-09-27T08:51:27;11.40;99.90
54788;DHT22;59598;48.112;16.280;2022-09-27T08:54:25;11.50;99.90
54788;DHT22;59598;48.112;16.280;2022-09-27T08:57:08;11.50;99.90
54788;DHT22;59598;48.112;16.280;2022-09-27T08:59:43;11.50;99.90
54788;DHT22;59598;48.112;16.280;2022-09-27T09:02:19;11.60;99.90
54788;DHT22;59598;48.112;16.280;2022-09-27T09:05:30;11.70;99.90
54788;DHT22;59598;48.112;16.280;2022-09-27T09:08:43;11.80;99.90
54788;DHT22;59598;48.112;16.280;2022-09-27T09:20:33;11.70;99.90
54788;DHT22;59598;48.112;16.280;2022-09-27T09:37:03;12.00;99.90
54788;DHT22;59598;48.112;16.280;2022-09-27T09:40:06;12.20;99.90
54788;DHT22;59598;48.112;16.280;2022-09-27T09:43:33;12.30;99.90
54788;DHT22;59598;48.112;16.280;2022-09-27T09:45:44;12.40;99.90
54788;DHT22;59598;48.112;16.280;2022-09-27T09:50:58;12.90;99.90
54788;DHT22;59598;48.112;16.280;2022-09-27T09:56:45;13.10;99.90
54788;DHT22;59598;48.112;16.280;2022-09-27T10:02:57;13.20;99.90
54788;DHT22;59598;48.112;16.280;2022-09-27T10:05:33;13.60;99.90
54788;DHT22;59598;48.112;16.280;2022-09-27T10:08:11;13.80;99.90
54788;DHT22;59598;48.112;16.280;2022-09-27T10:10:42;14.00;99.90
54788;DHT22;59598;48.112;16.280;2022-09-27T10:13:17;14.10;99.90
54788;DHT22;59598;48.112;16.280;2022-09-27T10:15:58;14.60;99.90
54788;DHT22;59598;48.112;16.280;2022-09-27T10:18:35;15.00;99.90
54788;DHT22;59598;48.112;16.280;2022-09-27T10:21:35;15.60;99.90
54788;DHT22;59598;48.112;16.280;2022-09-27T10:24:13;15.40;99.90
54788;DHT22;59598;48.112;16.280;2022-09-27T10:26:47;15.50;99.90
54788;DHT22;59598;48.112;16.280;2022-09-27T10:29:28;15.60;99.90
54788;DHT22;59598;48.112;16.280;2022-09-27T10:32:02;15.60;99.90
54788;DHT22;59598;48.112;16.280;2022-09-27T10:39:48;15.90;99.90
54788;DHT22;59598;48.112;16.280;2022-09-27T10:42:22;16.00;99.90
54788;DHT22;59598;48.112;16.280;2022-09-27T10:45:29;16.10;99.90
54788;DHT22;59598;48.112;16.280;2022-09-27T10:48:01;16.60;99.90
54788;DHT22;59598;48.112;16.280;2022-09-27T10:50:38;16.80;99.90
54788;DHT22;59598;48.112;16.280;2022-09-27T10:53:28;17.00;99.90
54788;DHT22;59598;48.112;16.280;2022-09-27T10:56:01;17.40;99.90
54788;DHT22;59598;48.112;16.280;2022-09-27T10:58:37;17.20;99.90
54788;DHT22;59598;48.112;16.280;2022-09-27T11:01:14;17.00;99.90
54788;DHT22;59598;48.112;16.280;2022-09-27T11:03:55;16.80;99.90
54788;DHT22;59598;48.112;16.280;2022-09-27T11:06:30;17.50;99.90
54788;DHT22;59598;48.112;16.280;2022-09-27T11:09:26;17.60;99.90
54788;DHT22;59598;48.112;16.280;2022-09-27T11:12:07;16.20;99.90
54788;DHT22;59598;48.112;16.280;2022-09-27T11:14:40;15.60;99.90
54788;DHT22;59598;48.112;16.280;2022-09-27T11:17:25;15.30;99.90
54788;DHT22;59598;48.112;16.280;2022-09-27T11:20:01;15.30;99.90
54788;DHT22;59598;48.112;16.280;2022-09-27T11:25:45;14.90;99.90
54788;DHT22;59598;48.112;16.280;2022-09-27T11:31:42;15.00;99.90
54788;DHT22;59598;48.112;16.280;2022-09-27T11:37:45;14.60;99.90
54788;DHT22;59598;48.112;16.280;2022-09-27T11:40:43;14.70;99.90
54788;DHT22;59598;48.112;16.280;2022-09-27T11:46:00;14.50;99.90
54788;DHT22;59598;48.112;16.280;2022-09-27T12:09:09;14.50;99.90
54788;DHT22;59598;48.112;16.280;2022-09-27T12:11:46;14.40;99.90
54788;DHT22;59598;48.112;16.280;2022-09-27T12:14:28;14.50;99.90
54788;DHT22;59598;48.112;16.280;2022-09-27T12:17:53;14.40;99.90
54788;DHT22;59598;48.112;16.280;2022-09-27T12:20:31;14.20;99.90
54788;DHT22;59598;48.112;16.280;2022-09-27T12:23:19;14.30;99.90
54788;DHT22;59598;48.112;16.280;2022-09-27T12:25:57;14.30;99.90
54788;DHT22;59598;48.112;16.280;2022-09-27T12:31:26;14.10;99.90
54788;DHT22;59598;48.112;16.280;2022-09-27T12:36:36;14.20;99.90
54788;DHT22;59598;48.112;16.280;2022-09-27T12:42:22;14.30;99.90
54788;DHT22;59598;48.112;16.280;2022-09-27T12:44:55;14.40;99.90
54788;DHT22;59598;48.112;16.280;2022-09-27T12:53:23;14.20;99.90
54788;DHT22;59598;48.112;16.280;2022-09-27T12:56:02;14.00;99.90
54788;DHT22;59598;48.112;16.280;2022-09-27T13:07:49;14.00;99.90
54788;DHT22;59598;48.112;16.280;2022-09-27T13:13:22;13.90;99.90
54788;DHT22;59598;48.112;16.280;2022-09-27T13:15:58;13.80;99.90
54788;DHT22;59598;48.112;16.280;2022-09-27T13:18:57;13.80;99.90
54788;DHT22;59598;48.112;16.280;2022-09-27T13:32:39;13.80;99.90
54788;DHT22;59598;48.112;16.280;2022-09-27T13:35:28;13.90;99.90
54788;DHT22;59598;48.112;16.280;2022-09-27T13:37:59;13.80;99.90
54788;DHT22;59598;48.112;16.280;2022-09-27T13:40:38;13.80;99.90
54788;DHT22;59598;48.112;16.280;2022-09-27T13:43:46;13.90;99.90
54788;DHT22;59598;48.112;16.280;2022-09-27T13:46:21;13.90;99.90
54788;DHT22;59598;48.112;16.280;2022-09-27T13:48:58;14.00;99.90
54788;DHT22;59598;48.112;16.280;2022-09-27T13:51:48;14.00;99.90
54788;DHT22;59598;48.112;16.280;2022-09-27T13:57:44;14.00;99.90
54788;DHT22;59598;48.112;16.280;2022-09-27T14:00:22;14.00;99.90
54788;DHT22;59598;48.112;16.280;2022-09-27T14:05:51;14.10;99.90
54788;DHT22;59598;48.112;16.280;2022-09-27T14:11:01;14.00;99.90
54788;DHT22;59598;48.112;16.280;2022-09-27T14:13:33;14.00;99.90
54788;DHT22;59598;48.112;16.280;2022-09-27T14:16:06;14.00;99.90
54788;DHT22;59598;48.112;16.280;2022-09-27T14:18:53;14.10;99.90
54788;DHT22;59598;48.112;16.280;2022-09-27T14:21:36;13.90;99.90
54788;DHT22;59598;48.112;16.280;2022-09-27T14:27:35;13.70;99.90
54788;DHT22;59598;48.112;16.280;2022-09-27T14:30:18;13.60;99.90
54788;DHT22;59598;48.112;16.280;2022-09-27T14:32:53;13.60;99.90
54788;DHT22;59598;48.112;16.280;2022-09-27T14:35:29;13.50;99.90
54788;DHT22;59598;48.112;16.280;2022-09-27T14:38:20;13.60;99.90
54788;DHT22;59598;48.112;16.280;2022-09-27T14:43:23;13.60;99.90
54788;DHT22;59598;48.112;16.280;2022-09-27T14:46:03;13.60;99.90
54788;DHT22;59598;48.112;16.280;2022-09-27T14:48:40;13.60;99.90
54788;DHT22;59598;48.112;16.280;2022-09-27T14:53:48;13.70;99.90
54788;DHT22;59598;48.112;16.280;2022-09-27T14:56:22;13.70;99.90
54788;DHT22;59598;48.112;16.280;2022-09-27T14:59:09;13.70;99.90
54788;DHT22;59598;48.112;16.280;2022-09-27T15:01:50;13.70;99.90
54788;DHT22;59598;48.112;16.280;2022-09-27T15:04:23;13.70;99.90
54788;DHT22;59598;48.112;16.280;2022-09-27T15:06:55;13.60;99.90
54788;DHT22;59598;48.112;16.280;2022-09-27T15:09:27;13.50;99.90
54788;DHT22;59598;48.112;16.280;2022-09-27T15:12:00;13.50;99.90
54788;DHT22;59598;48.112;16.280;2022-09-27T15:14:32;13.50;99.90
54788;DHT22;59598;48.112;16.280;2022-09-27T15:17:18;13.50;99.90
54788;DHT22;59598;48.112;16.280;2022-09-27T15:19:58;13.40;99.90
54788;DHT22;59598;48.112;16.280;2022-09-27T15:22:41;13.40;99.90
54788;DHT22;59598;48.112;16.280;2022-09-27T15:28:16;13.40;99.90
54788;DHT22;59598;48.112;16.280;2022-09-27T15:30:53;13.40;99.90
54788;DHT22;59598;48.112;16.280;2022-09-27T15:33:29;13.40;99.90
54788;DHT22;59598;48.112;16.280;2022-09-27T15:36:07;13.40;99.90
54788;DHT22;59598;48.112;16.280;2022-09-27T15:38:46;13.40;99.90
54788;DHT22;59598;48.112;16.280;2022-09-27T15:41:18;13.40;99.90
54788;DHT22;59598;48.112;16.280;2022-09-27T15:43:51;13.30;99.90
54788;DHT22;59598;48.112;16.280;2022-09-27T15:46:41;13.30;99.90
54788;DHT22;59598;48.112;16.280;2022-09-27T15:51:52;13.20;99.90
54788;DHT22;59598;48.112;16.280;2022-09-27T15:54:28;13.20;99.90
54788;DHT22;59598;48.112;16.280;2022-09-27T15:57:04;13.20;99.90
54788;DHT22;59598;48.112;16.280;2022-09-27T15:59:35;13.20;99.90
54788;DHT22;59598;48.112;16.280;2022-09-27T16:02:14;13.20;99.90
54788;DHT22;59598;48.112;16.280;2022-09-27T16:04:46;13.10;99.90
54788;DHT22;59598;48.112;16.280;2022-09-27T16:07:17;13.10;99.90
54788;DHT22;59598;48.112;16.280;2022-09-27T16:09:48;13.10;99.90
54788;DHT22;59598;48.112;16.280;2022-09-27T16:12:25;13.10;99.90
54788;DHT22;59598;48.112;16.280;2022-09-27T16:14:59;13.10;99.90
54788;DHT22;59598;48.112;16.280;2022-09-27T16:17:31;13.00;99.90
54788;DHT22;59598;48.112;16.280;2022-09-27T16:20:20;13.00;99.90
54788;DHT22;59598;48.112;16.280;2022-09-27T16:22:55;13.00;99.90
54788;DHT22;59598;48.112;16.280;2022-09-27T16:25:26;12.90;99.90
54788;DHT22;59598;48.112;16.280;2022-09-27T16:27:59;13.00;99.90
54788;DHT22;59598;48.112;16.280;2022-09-27T16:30:31;12.90;99.90
54788;DHT22;59598;48.112;16.280;2022-09-27T16:33:03;12.90;99.90
54788;DHT22;59598;48.112;16.280;2022-09-27T16:35:34;12.90;99.90
54788;DHT22;59598;48.112;16.280;2022-09-27T16:38:08;12.90;99.90
54788;DHT22;59598;48.112;16.280;2022-09-27T16:40:40;12.90;99.90
54788;DHT22;59598;48.112;16.280;2022-09-27T16:43:15;12.90;99.90
54788;DHT22;59598;48.112;16.280;2022-09-27T16:45:46;12.90;99.90
54788;DHT22;59598;48.112;16.280;2022-09-27T16:48:18;12.90;99.90
54788;DHT22;59598;48.112;16.280;2022-09-27T16:50:52;12.80;99.90
54788;DHT22;59598;48.112;16.280;2022-09-27T16:53:42;12.80;99.90
54788;DHT22;59598;48.112;16.280;2022-09-27T16:56:16;12.80;99.90
54788;DHT22;59598;48.112;16.280;2022-09-27T16:58:49;12.80;99.90
54788;DHT22;59598;48.112;16.280;2022-09-27T17:01:20;12.70;99.90
54788;DHT22;59598;48.112;16.280;2022-09-27T17:03:54;12.60;99.90
54788;DHT22;59598;48.112;16.280;2022-09-27T17:06:29;12.60;99.90
54788;DHT22;59598;48.112;16.280;2022-09-27T17:09:05;12.50;99.90
54788;DHT22;59598;48.112;16.280;2022-09-27T17:11:36;12.40;99.90
54788;DHT22;59598;48.112;16.280;2022-09-27T17:14:10;12.30;99.90
54788;DHT22;59598;48.112;16.280;2022-09-27T17:16:47;12.30;99.90
54788;DHT22;59598;48.112;16.280;2022-09-27T17:19:18;12.10;99.90
54788;DHT22;59598;48.112;16.280;2022-09-27T17:21:50;12.10;99.90
54788;DHT22;59598;48.112;16.280;2022-09-27T17:24:21;12.10;99.90
54788;DHT22;59598;48.112;16.280;2022-09-27T17:26:52;12.10;99.90
54788;DHT22;59598;48.112;16.280;2022-09-27T17:29:25;12.00;99.90
54788;DHT22;59598;48.112;16.280;2022-09-27T17:31:56;12.00;99.90
54788;DHT22;59598;48.112;16.280;2022-09-27T17:34:27;11.90;99.90
54788;DHT22;59598;48.112;16.280;2022-09-27T17:36:59;11.90;99.90
54788;DHT22;59598;48.112;16.280;2022-09-27T17:39:30;11.90;99.90
54788;DHT22;59598;48.112;16.280;2022-09-27T17:42:01;11.90;99.90
54788;DHT22;59598;48.112;16.280;2022-09-27T17:44:33;11.80;99.90
54788;DHT22;59598;48.112;16.280;2022-09-27T17:47:08;11.80;99.90
54788;DHT22;59598;48.112;16.280;2022-09-27T17:49:58;11.70;99.90
54788;DHT22;59598;48.112;16.280;2022-09-27T17:52:51;11.70;99.90
54788;DHT22;59598;48.112;16.280;2022-09-27T17:55:23;11.70;99.90
54788;DHT22;59598;48.112;16.280;2022-09-27T17:57:57;11.70;99.90
54788;DHT22;59598;48.112;16.280;2022-09-27T18:00:28;11.70;99.90
54788;DHT22;59598;48.112;16.280;2022-09-27T18:03:04;11.70;99.90
54788;DHT22;59598;48.112;16.280;2022-09-27T18:05:40;11.70;99.90
54788;DHT22;59598;48.112;16.280;2022-09-27T18:08:11;11.70;99.90
54788;DHT22;59598;48.112;16.280;2022-09-27T18:10:45;11.70;99.90
54788;DHT22;59598;48.112;16.280;2022-09-27T18:13:17;11.60;99.90
54788;DHT22;59598;48.112;16.280;2022-09-27T18:15:59;11.60;99.90
54788;DHT22;59598;48.112;16.280;2022-09-27T18:18:32;11.60;99.90
54788;DHT22;59598;48.112;16.280;2022-09-27T18:21:08;11.70;99.90
54788;DHT22;59598;48.112;16.280;2022-09-27T18:23:49;11.70;99.90
54788;DHT22;59598;48.112;16.280;2022-09-27T18:26:25;11.80;99.90
54788;DHT22;59598;48.112;16.280;2022-09-27T18:29:04;11.80;99.90
54788;DHT22;59598;48.112;16.280;2022-09-27T18:31:35;11.80;99.90
54788;DHT22;59598;48.112;16.280;2022-09-27T18:34:07;11.80;99.90
54788;DHT22;59598;48.112;16.280;2022-09-27T18:36:42;11.80;99.90
54788;DHT22;59598;48.112;16.280;2022-09-27T18:39:15;11.70;99.90
54788;DHT22;59598;48.112;16.280;2022-09-27T18:41:50;11.70;99.90
54788;DHT22;59598;48.112;16.280;2022-09-27T18:44:23;11.60;99.90
54788;DHT22;59598;48.112;16.280;2022-09-27T18:46:54;11.60;99.90
54788;DHT22;59598;48.112;16.280;2022-09-27T18:49:25;11.60;99.90
54788;DHT22;59598;48.112;16.280;2022-09-27T18:52:00;11.60;99.90
54788;DHT22;59598;48.112;16.280;2022-09-27T18:54:33;11.60;99.90
54788;DHT22;59598;48.112;16.280;2022-09-27T18:57:05;11.60;99.90
54788;DHT22;59598;48.112;16.280;2022-09-27T18:59:36;11.60;99.90
54788;DHT22;59598;48.112;16.280;2022-09-27T19:02:09;11.70;99.90
54788;DHT22;59598;48.112;16.280;2022-09-27T19:04:40;11.70;99.90
54788;DHT22;59598;48.112;16.280;2022-09-27T19:07:13;11.70;99.90
54788;DHT22;59598;48.112;16.280;2022-09-27T19:09:46;11.70;99.90
54788;DHT22;59598;48.112;16.280;2022-09-27T19:12:18;11.70;99.90
54788;DHT22;59598;48.112;16.280;2022-09-27T19:14:49;11.70;99.90